Time;durP1;ratioP1;P1;durP2;ratioP2;P2;SDS_P1;SDS_P2;PMS_P1;PMS_P2;Temp;Humidity;BMP_temperature;BMP_pressure;BME280_temperature;BME280_humidity;BME280_pressure;Samples;Min_cycle;Max_cycle;Signal;HPM_P1;HPM_P2
2022/03/25 00:01:57;;;;;;;17.90;9.50;;;6.20;84.10;;;;;;5035181;28;20649;-66
2022/03/25 00:04:22;;;;;;;12.43;8.27;;;6.10;84.30;;;;;;5035363;28;20535;-66
2022/03/25 00:06:48;;;;;;;11.83;9.00;;;6.10;84.90;;;;;;5035386;28;20167;-67
2022/03/25 00:09:14;;;;;;;14.63;7.60;;;6.10;85.40;;;;;;5035156;28;20634;-65
2022/03/25 00:11:40;;;;;;;19.20;8.70;;;6.00;86.00;;;;;;5035173;28;20164;-67
2022/03/25 00:14:05;;;;;;;14.23;8.17;;;6.20;87.40;;;;;;5035208;28;20175;-65
2022/03/25 00:16:32;;;;;;;13.83;9.10;;;6.30;88.10;;;;;;5034916;28;20471;-66
2022/03/25 00:18:57;;;;;;;13.40;8.33;;;6.50;88.40;;;;;;5035206;28;20186;-66
2022/03/25 00:21:23;;;;;;;15.10;6.90;;;6.40;88.70;;;;;;5034940;28;20429;-66
2022/03/25 00:23:48;;;;;;;16.70;8.50;;;6.80;88.90;;;;;;5034662;28;20176;-66
2022/03/25 00:26:14;;;;;;;16.60;9.10;;;6.80;88.30;;;;;;5034872;28;20176;-66
2022/03/25 00:28:39;;;;;;;13.30;8.40;;;6.60;87.20;;;;;;5034894;28;20164;-66
2022/03/25 00:31:08;;;;;;;13.57;6.33;;;6.30;87.20;;;;;;5034609;28;20188;-66
2022/03/25 00:33:34;;;;;;;14.13;8.80;;;6.10;87.70;;;;;;5034529;28;20171;-66
2022/03/25 00:36:01;;;;;;;9.63;6.10;;;6.00;88.30;;;;;;5034704;28;20460;-66
2022/03/25 00:38:27;;;;;;;10.93;7.47;;;5.90;88.90;;;;;;5034404;28;20465;-66
2022/03/25 00:40:53;;;;;;;18.53;8.40;;;5.90;89.30;;;;;;5034490;28;20465;-66
2022/03/25 00:43:19;;;;;;;17.07;9.10;;;5.80;89.70;;;;;;5034588;28;20889;-66
2022/03/25 00:45:44;;;;;;;15.70;7.60;;;5.80;90.00;;;;;;5033370;28;20218;-66
2022/03/25 00:48:10;;;;;;;15.53;7.93;;;5.80;90.20;;;;;;5034695;28;20823;-66
2022/03/25 00:50:35;;;;;;;13.20;8.73;;;5.80;90.50;;;;;;5034529;28;20629;-66
2022/03/25 00:53:01;;;;;;;19.53;8.07;;;5.70;90.50;;;;;;5034572;28;20163;-66
2022/03/25 00:55:26;;;;;;;13.10;7.33;;;5.70;90.70;;;;;;5034471;28;20198;-66
2022/03/25 00:57:52;;;;;;;14.60;8.57;;;5.70;91.10;;;;;;5034211;28;20217;-66
2022/03/25 01:00:17;;;;;;;9.53;6.77;;;5.70;91.50;;;;;;5035176;28;20192;-67
2022/03/25 01:02:43;;;;;;;10.80;9.07;;;5.70;91.70;;;;;;5032845;28;20592;-67
2022/03/25 01:05:08;;;;;;;10.70;7.07;;;5.70;91.80;;;;;;5033935;28;20203;-66
2022/03/25 01:07:34;;;;;;;13.77;7.10;;;5.70;91.90;;;;;;5034084;28;20174;-66
2022/03/25 01:10:00;;;;;;;11.40;8.00;;;5.70;92.10;;;;;;5033984;28;20192;-66
2022/03/25 01:12:26;;;;;;;11.60;7.53;;;5.90;92.00;;;;;;5034370;28;20210;-66
2022/03/25 01:14:51;;;;;;;9.60;7.60;;;6.10;91.60;;;;;;5033987;28;20399;-67
2022/03/25 01:17:17;;;;;;;17.70;8.70;;;6.00;91.40;;;;;;5033431;28;20164;-66
2022/03/25 01:19:44;;;;;;;15.67;7.97;;;5.80;91.70;;;;;;5033827;28;20681;-66
2022/03/25 01:22:09;;;;;;;13.23;9.53;;;5.70;92.00;;;;;;5033583;28;20410;-66
2022/03/25 01:24:35;;;;;;;17.97;9.10;;;5.60;92.20;;;;;;5033205;28;20836;-66
2022/03/25 01:27:02;;;;;;;12.07;7.20;;;5.60;92.50;;;;;;5033260;28;20171;-66
2022/03/25 01:29:28;;;;;;;10.70;7.93;;;5.60;92.80;;;;;;5033401;28;20905;-66
2022/03/25 01:31:53;;;;;;;13.43;7.07;;;5.60;93.00;;;;;;5033190;28;20405;-66
2022/03/25 01:34:19;;;;;;;13.00;7.90;;;5.50;93.30;;;;;;5033175;28;20622;-65
2022/03/25 01:36:45;;;;;;;9.80;8.40;;;5.50;93.70;;;;;;5033038;28;20622;-66
2022/03/25 01:39:11;;;;;;;14.00;8.13;;;5.50;93.80;;;;;;5033016;28;20180;-66
2022/03/25 01:41:36;;;;;;;14.50;8.67;;;5.50;93.90;;;;;;5033014;28;20740;-66
2022/03/25 01:44:02;;;;;;;16.07;7.37;;;5.40;94.10;;;;;;5032884;28;20167;-66
2022/03/25 01:46:27;;;;;;;17.20;8.10;;;5.40;94.20;;;;;;5032972;28;20182;-66
2022/03/25 01:48:53;;;;;;;17.63;8.07;;;5.40;94.40;;;;;;5032830;28;20217;-66
2022/03/25 01:51:26;;;;;;;12.20;9.03;;;5.40;94.50;;;;;;5032809;28;20290;-66
2022/03/25 01:53:51;;;;;;;13.73;7.80;;;5.40;95.20;;;;;;5032715;28;20525;-66
2022/03/25 01:56:22;;;;;;;13.97;7.30;;;5.40;95.20;;;;;;5032716;28;20414;-66
2022/03/25 01:58:48;;;;;;;17.80;6.90;;;5.40;95.20;;;;;;5032901;28;20509;-66
2022/03/25 02:01:14;;;;;;;13.20;7.73;;;5.40;95.40;;;;;;5032597;28;20422;-66
2022/03/25 02:03:40;;;;;;;19.63;9.60;;;5.30;95.60;;;;;;5032534;28;20459;-66
2022/03/25 02:06:06;;;;;;;14.20;8.90;;;5.30;95.70;;;;;;5032492;28;20465;-66
2022/03/25 02:08:31;;;;;;;11.20;7.33;;;5.30;95.90;;;;;;5031679;28;20410;-66
2022/03/25 02:10:58;;;;;;;15.47;7.70;;;5.30;96.00;;;;;;5031307;28;20429;-66
2022/03/25 02:13:24;;;;;;;13.00;7.50;;;5.20;96.20;;;;;;5032406;28;20171;-66
2022/03/25 02:15:50;;;;;;;13.07;9.93;;;5.20;96.50;;;;;;5032403;28;20783;-66
2022/03/25 02:18:20;;;;;;;16.53;9.63;;;5.20;96.50;;;;;;5032411;28;20409;-66
2022/03/25 02:20:47;;;;;;;29.00;9.60;;;5.20;96.70;;;;;;5032379;28;20227;-66
2022/03/25 02:23:14;;;;;;;12.03;8.20;;;5.20;97.10;;;;;;5032112;28;20492;-66
2022/03/25 02:25:41;;;;;;;19.17;7.60;;;5.20;97.30;;;;;;5031999;28;20458;-66
2022/03/25 02:28:07;;;;;;;11.03;8.87;;;5.10;97.50;;;;;;5032594;28;20873;-66
2022/03/25 02:30:34;;;;;;;14.63;8.20;;;5.10;97.70;;;;;;5032736;28;20429;-66
2022/03/25 02:33:01;;;;;;;14.87;9.30;;;5.10;97.80;;;;;;5032603;28;20497;-66
2022/03/25 02:35:37;;;;;;;13.30;6.97;;;5.10;98.00;;;;;;5032192;28;20501;-66
2022/03/25 02:38:04;;;;;;;16.87;9.03;;;5.00;98.10;;;;;;5032385;28;20414;-67
2022/03/25 02:40:29;;;;;;;14.73;8.70;;;5.00;98.50;;;;;;5032480;28;20453;-66
2022/03/25 02:42:55;;;;;;;9.57;8.43;;;5.00;98.80;;;;;;5032158;28;20410;-67
2022/03/25 02:45:21;;;;;;;10.47;8.13;;;5.00;99.00;;;;;;5031990;28;20658;-67
2022/03/25 02:47:46;;;;;;;13.30;7.87;;;5.00;99.00;;;;;;5032123;28;20176;-66
2022/03/25 02:50:12;;;;;;;17.80;9.87;;;5.00;99.20;;;;;;5030141;28;20433;-66
2022/03/25 02:52:37;;;;;;;16.13;8.90;;;5.00;99.40;;;;;;5031550;28;20178;-66
2022/03/25 02:55:03;;;;;;;14.93;8.73;;;5.00;99.50;;;;;;5031770;28;20172;-66
2022/03/25 02:57:29;;;;;;;18.67;9.43;;;4.90;99.60;;;;;;5031550;28;20468;-66
2022/03/25 02:59:54;;;;;;;9.43;6.30;;;5.00;99.90;;;;;;5031571;28;20321;-66
2022/03/25 03:02:20;;;;;;;21.10;7.70;;;5.00;99.90;;;;;;5031550;28;20175;-67
2022/03/25 03:04:45;;;;;;;12.03;7.17;;;5.00;99.90;;;;;;5031472;28;20203;-66
2022/03/25 03:07:10;;;;;;;13.07;8.40;;;5.00;99.90;;;;;;5031756;28;20175;-66
2022/03/25 03:09:36;;;;;;;14.57;9.43;;;5.00;99.90;;;;;;5031678;28;20654;-66
2022/03/25 03:12:02;;;;;;;13.40;10.27;;;5.00;99.90;;;;;;5031300;28;20194;-66
2022/03/25 03:14:27;;;;;;;17.23;10.70;;;5.00;99.90;;;;;;5031271;28;20184;-66
2022/03/25 03:16:53;;;;;;;17.70;9.03;;;5.00;99.90;;;;;;5031783;28;20676;-66
2022/03/25 03:19:18;;;;;;;18.47;9.87;;;4.90;99.90;;;;;;5031250;28;20168;-67
2022/03/25 03:21:45;;;;;;;14.03;8.63;;;4.90;99.90;;;;;;5031434;28;20172;-67
2022/03/25 03:24:10;;;;;;;18.53;8.17;;;4.90;99.90;;;;;;5031538;28;20573;-67
2022/03/25 03:26:36;;;;;;;17.50;8.77;;;5.00;99.90;;;;;;5031430;28;20521;-67
2022/03/25 03:29:01;;;;;;;13.23;8.23;;;5.00;99.90;;;;;;5031527;28;20559;-66
2022/03/25 03:31:27;;;;;;;18.63;6.77;;;5.10;99.90;;;;;;5031918;28;20187;-67
2022/03/25 03:33:52;;;;;;;15.90;9.57;;;5.30;99.90;;;;;;5031401;28;20226;-66
2022/03/25 03:36:18;;;;;;;16.27;8.90;;;5.40;99.90;;;;;;5031514;28;20174;-66
2022/03/25 03:38:43;;;;;;;17.07;10.00;;;5.30;99.90;;;;;;5030158;28;20195;-66
2022/03/25 03:41:09;;;;;;;13.23;8.43;;;5.20;99.90;;;;;;5031231;28;20611;-66
2022/03/25 03:43:34;;;;;;;13.93;8.63;;;5.10;99.90;;;;;;5031005;28;20178;-67
2022/03/25 03:46:00;;;;;;;13.90;7.90;;;5.00;99.90;;;;;;5030997;28;20477;-66
2022/03/25 03:48:25;;;;;;;11.20;7.83;;;5.00;99.90;;;;;;5031421;28;20254;-67
2022/03/25 03:50:51;;;;;;;16.43;10.03;;;5.00;99.90;;;;;;5031030;28;20271;-67
2022/03/25 03:53:16;;;;;;;9.73;7.57;;;5.20;99.90;;;;;;5030941;28;20171;-66
2022/03/25 03:55:42;;;;;;;10.00;8.43;;;5.10;99.90;;;;;;5031228;28;20207;-67
2022/03/25 03:58:08;;;;;;;14.93;8.23;;;5.10;99.90;;;;;;5031179;28;20631;-66
2022/03/25 04:00:34;;;;;;;11.50;7.47;;;5.10;99.90;;;;;;5030878;28;20190;-66
2022/03/25 04:03:00;;;;;;;10.37;7.30;;;5.00;99.90;;;;;;5031256;28;20403;-66
2022/03/25 04:05:25;;;;;;;14.57;8.10;;;5.00;99.90;;;;;;5030881;28;20449;-67
2022/03/25 04:07:51;;;;;;;14.40;8.10;;;4.90;99.90;;;;;;5031004;28;20179;-66
2022/03/25 04:10:17;;;;;;;12.10;7.80;;;4.90;99.90;;;;;;5030882;28;20534;-67
2022/03/25 04:12:43;;;;;;;14.17;7.70;;;4.90;99.90;;;;;;5031004;28;20259;-67
2022/03/25 04:15:10;;;;;;;13.33;8.57;;;4.90;99.90;;;;;;5030969;28;20731;-66
2022/03/25 04:17:40;;;;;;;16.97;8.83;;;4.80;99.90;;;;;;5031334;28;20414;-67
2022/03/25 04:20:07;;;;;;;14.57;8.97;;;4.80;99.90;;;;;;5031064;28;20430;-66
2022/03/25 04:22:33;;;;;;;13.30;8.13;;;4.80;99.90;;;;;;5030964;28;20490;-67
2022/03/25 04:24:59;;;;;;;11.93;8.33;;;4.70;99.90;;;;;;5030747;28;20548;-66
2022/03/25 04:27:24;;;;;;;14.20;8.10;;;4.70;99.90;;;;;;5030945;28;20202;-66
2022/03/25 04:29:50;;;;;;;12.13;8.97;;;4.70;99.90;;;;;;5030893;28;20521;-66
2022/03/25 04:32:16;;;;;;;12.90;7.20;;;4.70;99.90;;;;;;5032286;28;20171;-67
2022/03/25 04:34:41;;;;;;;10.70;7.70;;;4.60;99.90;;;;;;5034796;28;20637;-67
2022/03/25 04:37:09;;;;;;;11.60;8.03;;;4.70;99.90;;;;;;5034464;28;20414;-66
2022/03/25 04:39:34;;;;;;;10.10;8.47;;;4.70;99.90;;;;;;5034489;28;20226;-67
2022/03/25 04:42:00;;;;;;;11.93;7.70;;;4.70;99.90;;;;;;5034939;28;20498;-66
2022/03/25 04:44:25;;;;;;;11.20;6.73;;;4.70;99.90;;;;;;5034394;28;20199;-67
2022/03/25 04:46:53;;;;;;;13.40;7.60;;;4.70;99.90;;;;;;5034746;28;20171;-66
2022/03/25 04:49:18;;;;;;;10.07;6.20;;;4.60;99.90;;;;;;5034562;28;20172;-67
2022/03/25 04:51:43;;;;;;;15.10;7.77;;;4.60;99.90;;;;;;5034450;28;20399;-66
2022/03/25 04:54:09;;;;;;;13.90;7.60;;;4.60;99.90;;;;;;5034164;28;20171;-67
2022/03/25 04:56:36;;;;;;;10.73;7.57;;;4.60;99.90;;;;;;5033940;28;20230;-66
2022/03/25 04:59:02;;;;;;;15.67;7.87;;;4.60;99.90;;;;;;5051340;28;20652;-66
2022/03/25 05:01:27;;;;;;;10.50;8.73;;;4.60;99.90;;;;;;5053547;28;20425;-66
2022/03/25 05:03:53;;;;;;;11.60;8.80;;;4.70;99.90;;;;;;5053914;28;20402;-66
2022/03/25 05:06:18;;;;;;;13.47;7.40;;;4.80;99.90;;;;;;5053258;28;20385;-66
2022/03/25 05:08:44;;;;;;;12.43;9.10;;;4.90;99.90;;;;;;5053487;28;20171;-66
2022/03/25 05:11:09;;;;;;;15.93;9.33;;;4.80;99.90;;;;;;5053294;28;20265;-66
2022/03/25 05:13:35;;;;;;;12.00;7.50;;;4.80;99.90;;;;;;5053119;28;20179;-66
2022/03/25 05:16:00;;;;;;;17.30;8.13;;;4.80;99.90;;;;;;5053153;28;20175;-66
2022/03/25 05:18:26;;;;;;;10.73;7.17;;;4.70;99.90;;;;;;5053187;28;20175;-66
2022/03/25 05:20:52;;;;;;;14.80;9.13;;;4.90;99.90;;;;;;5053146;28;20190;-66
2022/03/25 05:23:17;;;;;;;12.83;6.60;;;4.90;99.90;;;;;;5053280;28;20177;-66
2022/03/25 05:25:43;;;;;;;16.50;9.50;;;4.80;99.90;;;;;;5052747;28;20695;-66
2022/03/25 05:28:08;;;;;;;10.13;8.50;;;4.90;99.90;;;;;;5053148;28;20163;-66
2022/03/25 05:30:35;;;;;;;23.03;9.40;;;5.10;99.90;;;;;;5052960;28;20213;-66
2022/03/25 05:33:01;;;;;;;10.37;8.10;;;5.10;99.90;;;;;;5053135;28;20539;-66
2022/03/25 05:35:28;;;;;;;13.47;7.33;;;5.10;99.90;;;;;;5052992;28;20860;-66
2022/03/25 05:37:54;;;;;;;12.73;7.47;;;5.20;99.90;;;;;;5052798;28;20401;-67
2022/03/25 05:40:21;;;;;;;11.43;8.50;;;5.30;99.90;;;;;;5052988;28;20436;-67
2022/03/25 05:42:48;;;;;;;9.80;8.30;;;5.40;99.90;;;;;;5052706;28;20247;-67
2022/03/25 05:45:16;;;;;;;16.17;8.73;;;5.40;99.90;;;;;;5052809;28;20449;-66
2022/03/25 05:47:41;;;;;;;12.53;8.00;;;5.60;99.90;;;;;;5052940;28;20485;-67
2022/03/25 05:50:09;;;;;;;19.13;9.90;;;5.70;99.90;;;;;;5053074;28;20509;-67
2022/03/25 05:52:35;;;;;;;15.50;7.77;;;5.80;99.90;;;;;;5052735;28;20171;-67
2022/03/25 05:55:01;;;;;;;11.97;7.83;;;5.90;99.90;;;;;;5052562;28;20784;-67
2022/03/25 05:57:26;;;;;;;15.10;9.23;;;6.00;99.90;;;;;;5052649;28;20414;-67
2022/03/25 05:59:52;;;;;;;14.03;7.80;;;6.20;99.90;;;;;;5052551;28;20429;-67
2022/03/25 06:02:17;;;;;;;14.23;7.57;;;6.40;99.90;;;;;;5052670;28;20213;-66
2022/03/25 06:04:43;;;;;;;15.30;7.17;;;6.80;99.90;;;;;;5052617;28;20657;-67
2022/03/25 06:07:10;;;;;;;8.93;7.20;;;7.10;99.90;;;;;;5052518;28;20248;-66
2022/03/25 06:09:35;;;;;;;17.50;9.27;;;7.20;99.90;;;;;;5052590;28;20791;-66
2022/03/25 06:12:01;;;;;;;15.40;7.03;;;7.30;99.90;;;;;;5052887;28;20492;-66
2022/03/25 06:14:26;;;;;;;19.37;8.17;;;7.70;99.90;;;;;;5052320;28;20251;-66
2022/03/25 06:16:52;;;;;;;15.97;8.70;;;7.90;99.90;;;;;;5052317;28;20286;-67
2022/03/25 06:19:18;;;;;;;18.83;8.83;;;8.50;99.20;;;;;;5052398;28;20178;-66
2022/03/25 06:21:44;;;;;;;16.17;7.73;;;8.90;97.90;;;;;;5052292;28;20662;-67
2022/03/25 06:24:10;;;;;;;13.67;7.57;;;8.70;97.60;;;;;;5051909;28;20657;-67
2022/03/25 06:26:35;;;;;;;12.17;7.70;;;9.00;96.80;;;;;;5052092;28;20401;-67
2022/03/25 06:29:02;;;;;;;16.80;9.67;;;9.30;96.40;;;;;;5052537;28;20178;-67
2022/03/25 06:31:28;;;;;;;12.27;8.63;;;9.40;95.90;;;;;;5052087;28;20573;-67
2022/03/25 06:33:54;;;;;;;14.63;7.20;;;9.70;96.30;;;;;;5052485;28;20409;-67
2022/03/25 06:36:19;;;;;;;10.53;8.17;;;10.10;94.80;;;;;;5052070;28;20416;-67
2022/03/25 06:38:45;;;;;;;13.83;8.70;;;10.10;94.10;;;;;;5051021;28;20782;-67
2022/03/25 06:41:10;;;;;;;20.80;8.80;;;10.20;93.40;;;;;;5051899;28;20239;-67
2022/03/25 06:43:37;;;;;;;12.33;7.17;;;10.80;92.20;;;;;;5052061;28;20224;-67
2022/03/25 06:46:04;;;;;;;13.33;9.20;;;10.80;91.50;;;;;;5051785;28;20210;-67
2022/03/25 06:48:30;;;;;;;15.77;8.77;;;11.40;91.20;;;;;;5052048;28;20527;-67
2022/03/25 06:50:55;;;;;;;16.83;8.50;;;11.60;90.40;;;;;;5051756;28;20425;-67
2022/03/25 06:53:21;;;;;;;15.00;8.40;;;11.90;89.50;;;;;;5051590;28;20414;-67
2022/03/25 06:55:47;;;;;;;16.83;9.57;;;12.10;88.40;;;;;;5051107;28;20201;-66
2022/03/25 06:58:13;;;;;;;19.23;9.23;;;12.50;85.50;;;;;;5050614;28;20272;-66
2022/03/25 07:00:39;;;;;;;19.47;9.00;;;12.90;83.80;;;;;;5046792;28;20549;-67
2022/03/25 07:03:05;;;;;;;11.80;9.30;;;13.10;81.70;;;;;;5031597;28;20214;-67
2022/03/25 07:05:31;;;;;;;12.63;8.80;;;13.40;79.90;;;;;;5031268;28;20541;-67
2022/03/25 07:07:58;;;;;;;17.57;8.50;;;13.70;78.80;;;;;;5031505;28;20186;-67
2022/03/25 07:10:26;;;;;;;15.50;9.40;;;13.50;77.20;;;;;;5031538;28;20425;-67
2022/03/25 07:12:53;;;;;;;15.60;9.90;;;13.70;76.00;;;;;;5031569;28;20497;-65
2022/03/25 07:15:22;;;;;;;16.00;9.23;;;13.50;75.70;;;;;;5031224;28;20414;-65
2022/03/25 07:17:48;;;;;;;19.10;9.93;;;13.10;76.60;;;;;;5031363;28;20415;-65
2022/03/25 07:20:16;;;;;;;13.33;8.50;;;13.20;76.40;;;;;;5031939;28;20511;-65
2022/03/25 07:22:42;;;;;;;18.37;10.93;;;14.00;74.60;;;;;;5031321;28;20198;-65
2022/03/25 07:25:09;;;;;;;16.53;10.07;;;14.30;74.50;;;;;;5030929;28;20457;-68
2022/03/25 07:27:35;;;;;;;17.23;10.57;;;15.10;71.00;;;;;;5031327;28;20473;-65
2022/03/25 07:30:00;;;;;;;14.90;8.83;;;14.90;71.80;;;;;;5031244;28;20455;-67
2022/03/25 07:32:26;;;;;;;15.57;10.97;;;14.90;70.40;;;;;;5031198;28;20178;-68
2022/03/25 07:34:51;;;;;;;15.60;9.77;;;15.00;68.60;;;;;;5030988;28;20174;-66
2022/03/25 07:37:17;;;;;;;21.83;11.33;;;14.20;71.60;;;;;;5030982;28;20199;-66
2022/03/25 07:39:44;;;;;;;17.90;11.27;;;14.30;70.80;;;;;;5031333;28;20565;-65
2022/03/25 07:42:09;;;;;;;25.13;12.33;;;13.90;71.90;;;;;;5031023;28;20604;-66
2022/03/25 07:44:36;;;;;;;16.23;10.53;;;15.00;72.10;;;;;;5031050;28;20547;-67
2022/03/25 07:47:01;;;;;;;13.20;9.67;;;16.00;69.00;;;;;;5034329;28;20254;-67
2022/03/25 07:49:27;;;;;;;20.03;12.73;;;14.60;68.60;;;;;;5050220;28;20444;-67
2022/03/25 07:51:53;;;;;;;17.67;11.10;;;14.80;71.80;;;;;;5044032;28;20658;-67
2022/03/25 07:54:18;;;;;;;16.57;10.80;;;14.10;70.30;;;;;;5032966;28;20631;-65
2022/03/25 07:56:43;;;;;;;20.47;12.20;;;14.70;70.40;;;;;;5049024;28;20424;-68
2022/03/25 07:59:11;;;;;;;17.50;10.03;;;13.80;69.90;;;;;;5043948;28;20300;-67
2022/03/25 08:01:36;;;;;;;16.87;11.07;;;14.60;72.50;;;;;;5031241;28;20185;-66
2022/03/25 08:04:02;;;;;;;19.33;11.33;;;15.40;68.70;;;;;;5031952;28;20420;-66
2022/03/25 08:06:27;;;;;;;15.20;9.60;;;16.00;66.30;;;;;;5030849;28;20176;-68
2022/03/25 08:08:53;;;;;;;20.20;11.50;;;15.50;66.40;;;;;;5034550;28;20168;-66
2022/03/25 08:11:20;;;;;;;20.00;10.37;;;16.20;67.80;;;;;;5038333;28;20556;-66
2022/03/25 08:13:47;;;;;;;17.90;10.60;;;16.30;66.90;;;;;;5055304;28;20278;-67
2022/03/25 08:16:16;;;;;;;21.63;11.10;;;15.30;66.40;;;;;;5055248;28;20423;-67
2022/03/25 08:18:42;;;;;;;18.50;11.90;;;14.50;68.80;;;;;;5054603;28;20403;-67
2022/03/25 08:21:07;;;;;;;20.47;11.77;;;15.70;67.20;;;;;;5052996;28;20919;-67
2022/03/25 08:29:01;;;;;;;18.50;10.60;;;16.60;65.20;;;;;;5034798;28;20457;-66
2022/03/25 08:31:28;;;;;;;18.23;11.03;;;16.10;65.50;;;;;;5034543;28;20424;-66
2022/03/25 08:33:54;;;;;;;18.47;10.40;;;15.00;67.70;;;;;;5034700;28;20162;-67
2022/03/25 08:36:20;;;;;;;16.60;10.90;;;14.90;68.90;;;;;;5054501;28;21008;-67
2022/03/25 08:38:45;;;;;;;16.70;9.70;;;14.90;68.20;;;;;;5055255;28;20443;-66
2022/03/25 08:41:12;;;;;;;17.97;10.20;;;14.70;70.20;;;;;;5055075;28;20333;-66
2022/03/25 08:43:38;;;;;;;17.90;11.70;;;14.50;69.30;;;;;;5055281;28;20200;-66
2022/03/25 08:46:04;;;;;;;18.60;10.33;;;14.60;69.60;;;;;;5054823;28;20552;-66
2022/03/25 08:48:30;;;;;;;17.93;10.27;;;14.70;70.50;;;;;;5055162;28;20444;-66
2022/03/25 08:50:56;;;;;;;16.43;10.37;;;15.00;70.70;;;;;;5054778;28;20431;-67
2022/03/25 08:53:22;;;;;;;17.43;10.13;;;16.10;68.30;;;;;;5054197;28;20440;-67
2022/03/25 08:55:47;;;;;;;15.67;11.50;;;17.00;67.90;;;;;;5054478;28;20177;-67
2022/03/25 08:58:13;;;;;;;19.67;11.87;;;16.70;66.00;;;;;;5054445;28;20222;-67
2022/03/25 09:00:39;;;;;;;21.10;12.77;;;17.20;66.50;;;;;;5045425;28;20214;-67
2022/03/25 09:03:05;;;;;;;19.43;12.87;;;16.40;66.40;;;;;;5034569;28;20171;-67
2022/03/25 09:05:31;;;;;;;15.60;10.07;;;17.50;66.60;;;;;;5040101;28;20800;-66
2022/03/25 09:07:56;;;;;;;17.00;11.00;;;17.20;66.70;;;;;;5038073;28;20422;-66
2022/03/25 09:10:22;;;;;;;18.60;12.37;;;17.60;64.80;;;;;;5034624;28;20423;-66
2022/03/25 09:12:47;;;;;;;19.57;12.50;;;16.50;67.00;;;;;;5034135;28;20252;-66
2022/03/25 09:15:14;;;;;;;21.03;11.00;;;16.90;67.90;;;;;;5032418;28;20175;-68
2022/03/25 09:17:42;;;;;;;17.87;11.20;;;16.30;68.40;;;;;;5035952;23;20220;-72
2022/03/25 09:20:08;;;;;;;19.07;11.83;;;15.80;69.70;;;;;;5015690;28;20447;-72
2022/03/25 09:22:35;;;;;;;19.00;13.10;;;16.50;69.20;;;;;;5018913;28;20404;-72
2022/03/25 09:25:01;;;;;;;16.30;11.47;;;15.80;69.90;;;;;;5022040;28;20501;-73
2022/03/25 09:27:26;;;;;;;19.47;12.70;;;17.50;69.00;;;;;;5019704;28;20816;-72
2022/03/25 09:29:52;;;;;;;18.90;11.80;;;17.10;66.00;;;;;;5015811;28;20788;-72
2022/03/25 09:32:17;;;;;;;17.40;10.70;;;17.70;66.60;;;;;;5016143;28;20165;-72
2022/03/25 09:37:27;;;;;;;18.47;11.13;;;17.10;68.80;;;;;;5016502;28;20195;-72
2022/03/25 09:39:53;;;;;;;17.90;11.70;;;17.30;65.50;;;;;;5015776;28;20500;-72
2022/03/25 09:42:19;;;;;;;16.73;12.00;;;16.80;68.70;;;;;;5015440;28;20248;-71
2022/03/25 09:44:46;;;;;;;21.77;13.73;;;17.30;68.60;;;;;;5014645;28;20304;-72
2022/03/25 09:47:18;;;;;;;19.13;12.20;;;18.30;66.60;;;;;;5015350;28;20421;-72
2022/03/25 09:49:44;;;;;;;18.27;13.57;;;17.60;65.90;;;;;;5015494;28;20424;-72
2022/03/25 09:52:10;;;;;;;22.70;14.53;;;16.90;69.00;;;;;;5015742;28;20899;-72
2022/03/25 09:54:36;;;;;;;18.43;11.27;;;16.50;70.30;;;;;;5014584;28;20422;-72
2022/03/25 09:57:03;;;;;;;16.47;11.10;;;16.20;71.20;;;;;;5014933;28;20228;-70
2022/03/25 09:59:28;;;;;;;28.50;17.63;;;17.10;69.50;;;;;;5012482;28;20233;-70
2022/03/25 10:01:57;;;;;;;18.67;14.80;;;16.80;70.70;;;;;;5022547;28;20418;-70
2022/03/25 10:04:45;;;;;;;25.50;16.57;;;16.40;71.80;;;;;;5020046;28;20189;-69
2022/03/25 10:07:17;;;;;;;22.80;15.20;;;16.70;71.50;;;;;;5021250;28;20932;-69
2022/03/25 10:09:47;;;;;;;22.50;12.33;;;17.00;71.00;;;;;;5012830;28;20453;-70
2022/03/25 10:12:21;;;;;;;21.87;11.93;;;16.50;71.00;;;;;;5014157;28;20414;-71
2022/03/25 10:14:49;;;;;;;18.77;10.70;;;16.30;70.60;;;;;;5013989;28;21156;-69
2022/03/25 10:17:14;;;;;;;21.83;11.80;;;16.20;72.60;;;;;;5014233;28;20508;-70
2022/03/25 10:19:50;;;;;;;25.87;13.93;;;16.50;72.50;;;;;;5014075;28;20410;-70
2022/03/25 10:22:19;;;;;;;25.10;14.87;;;16.90;70.60;;;;;;5014067;28;20823;-69
2022/03/25 10:24:52;;;;;;;21.73;12.60;;;16.90;71.70;;;;;;5013321;28;20481;-71
2022/03/25 10:27:23;;;;;;;24.40;14.47;;;16.30;72.60;;;;;;5013048;28;20529;-70
2022/03/25 10:29:50;;;;;;;23.80;13.10;;;16.40;72.70;;;;;;5012271;28;20927;-71
2022/03/25 10:32:19;;;;;;;17.07;11.77;;;16.20;73.10;;;;;;5012575;28;20432;-69
2022/03/25 10:34:58;;;;;;;23.50;13.30;;;16.10;73.60;;;;;;5012624;28;20417;-71
2022/03/25 10:37:25;;;;;;;19.70;12.60;;;15.90;73.90;;;;;;4993284;28;20468;-70
2022/03/25 10:39:52;;;;;;;18.60;12.37;;;16.30;73.90;;;;;;4993103;28;20807;-69
2022/03/25 10:42:18;;;;;;;22.57;12.20;;;16.30;74.10;;;;;;4993202;28;20419;-69
2022/03/25 10:44:43;;;;;;;25.77;12.27;;;15.90;73.60;;;;;;4992813;28;20449;-70
2022/03/25 10:47:15;;;;;;;20.77;11.67;;;16.20;74.30;;;;;;5011716;28;20703;-70
2022/03/25 10:49:43;;;;;;;21.07;12.87;;;16.60;73.40;;;;;;5012250;28;20188;-68
2022/03/25 10:52:30;;;;;;;18.73;12.80;;;16.70;72.00;;;;;;5012516;28;20499;-69
2022/03/25 10:55:22;;;;;;;18.37;11.30;;;16.40;73.90;;;;;;5012183;28;20907;-71
2022/03/25 10:57:58;;;;;;;22.40;12.23;;;16.30;73.60;;;;;;5012422;28;20523;-69
2022/03/25 11:00:25;;;;;;;17.60;10.53;;;16.70;73.20;;;;;;5012598;28;20429;-69
2022/03/25 11:02:52;;;;;;;19.53;11.70;;;16.80;72.40;;;;;;5012310;28;20445;-71
2022/03/25 11:05:18;;;;;;;23.53;13.10;;;16.30;72.90;;;;;;5011992;28;20526;-73
2022/03/25 11:07:45;;;;;;;23.10;13.50;;;16.30;74.40;;;;;;5012206;28;20451;-72
2022/03/25 11:10:17;;;;;;;17.40;11.40;;;16.20;74.30;;;;;;5012645;28;20552;-74
2022/03/25 11:12:47;;;;;;;21.33;11.80;;;15.90;74.30;;;;;;5012330;28;20419;-72
2022/03/25 11:15:18;;;;;;;22.87;11.80;;;16.10;74.50;;;;;;5012619;28;21005;-72
2022/03/25 11:17:45;;;;;;;17.87;11.50;;;16.50;75.00;;;;;;5012218;28;20459;-73
2022/03/25 11:20:13;;;;;;;15.43;10.10;;;16.50;74.30;;;;;;5012162;28;20780;-71
2022/03/25 11:22:47;;;;;;;19.73;12.03;;;16.70;74.00;;;;;;5011964;28;20417;-72
2022/03/25 11:25:18;;;;;;;17.10;10.40;;;16.70;74.00;;;;;;5011778;28;20458;-71
2022/03/25 11:27:51;;;;;;;17.37;10.47;;;16.80;73.20;;;;;;5012221;28;20904;-71
2022/03/25 11:30:16;;;;;;;17.17;10.37;;;16.90;73.30;;;;;;5011992;28;20415;-72
2022/03/25 11:33:04;;;;;;;16.20;9.80;;;16.70;73.10;;;;;;5011973;28;20413;-71
2022/03/25 11:35:32;;;;;;;16.13;10.23;;;16.80;73.90;;;;;;5010580;28;20178;-71
2022/03/25 11:38:18;;;;;;;19.37;12.37;;;16.90;73.00;;;;;;5011589;28;20460;-72
2022/03/25 11:40:46;;;;;;;17.80;10.40;;;16.90;72.40;;;;;;5012914;28;20416;-72
2022/03/25 11:43:20;;;;;;;13.53;9.47;;;16.70;73.60;;;;;;5015654;28;20417;-71
2022/03/25 11:46:06;;;;;;;18.30;8.53;;;16.50;73.10;;;;;;5015779;28;20872;-72
2022/03/25 11:48:37;;;;;;;12.57;8.60;;;16.70;71.80;;;;;;5015965;28;20523;-70
2022/03/25 11:51:30;;;;;;;10.90;6.23;;;16.80;71.30;;;;;;5015871;28;20494;-71
2022/03/25 11:53:56;;;;;;;11.27;6.50;;;16.80;71.10;;;;;;5016241;28;20767;-72
2022/03/25 11:56:22;;;;;;;13.33;6.63;;;16.70;71.90;;;;;;5015744;28;21096;-71
2022/03/25 11:58:59;;;;;;;11.73;7.00;;;16.60;72.50;;;;;;5015718;28;20433;-72
2022/03/25 12:01:25;;;;;;;10.93;6.03;;;16.90;71.50;;;;;;5015696;28;20419;-71
2022/03/25 12:03:53;;;;;;;14.37;6.97;;;16.90;70.10;;;;;;5015737;28;20925;-71
2022/03/25 12:06:21;;;;;;;9.20;5.97;;;16.70;70.30;;;;;;5016552;28;20204;-71
2022/03/25 12:09:02;;;;;;;8.50;5.83;;;16.70;70.80;;;;;;5015579;28;20443;-71
2022/03/25 12:11:46;;;;;;;14.73;7.83;;;16.90;71.90;;;;;;5016717;28;20427;-71
2022/03/25 12:14:11;;;;;;;10.33;6.70;;;16.90;71.20;;;;;;5015655;28;20408;-71
2022/03/25 12:16:46;;;;;;;11.47;6.33;;;16.90;71.30;;;;;;5014973;28;20412;-71
2022/03/25 12:19:39;;;;;;;12.40;7.00;;;16.90;71.50;;;;;;5015426;28;20234;-71
2022/03/25 12:22:28;;;;;;;10.23;5.23;;;16.80;71.00;;;;;;5015155;28;20420;-71
2022/03/25 12:24:58;;;;;;;14.20;6.83;;;16.70;71.50;;;;;;5015028;28;20490;-72
2022/03/25 12:27:24;;;;;;;11.30;7.40;;;17.10;71.50;;;;;;5015222;28;20435;-72
2022/03/25 12:29:52;;;;;;;13.27;7.57;;;17.00;71.60;;;;;;5013808;28;20416;-72
2022/03/25 12:32:20;;;;;;;9.53;5.83;;;17.20;71.20;;;;;;5014863;28;20415;-71
2022/03/25 12:35:08;;;;;;;10.83;7.30;;;17.40;70.90;;;;;;5014926;28;20417;-71
2022/03/25 12:37:46;;;;;;;8.77;6.43;;;17.40;70.00;;;;;;5014851;28;20424;-71
2022/03/25 12:40:12;;;;;;;11.73;7.53;;;17.50;69.70;;;;;;5014652;28;20427;-73
2022/03/25 12:42:38;;;;;;;11.00;6.87;;;17.30;70.40;;;;;;5014783;28;20906;-71
2022/03/25 12:45:04;;;;;;;9.87;6.47;;;17.50;70.40;;;;;;5014824;28;20458;-72
2022/03/25 12:47:31;;;;;;;10.40;7.40;;;17.60;70.00;;;;;;5014597;28;20255;-70